Aviation Digital Data Service (ADDS)

Output produced by TAFs form (1353 UTC 28 February 2015)
found at http://www.aviationweather.gov/adds/tafs/
 
KSBY 281120Z 2812/0112 32005KT P6SM BKN120 BKN250 
     FM281800 35005KT P6SM FEW025 OVC080